createdAt,value
2022-08-06T00:00:02.323Z,0.50
2022-08-06T00:02:25.747Z,0.40
2022-08-06T00:05:00.457Z,0.50
2022-08-06T00:07:28.620Z,0.40
2022-08-06T00:10:00.859Z,0.40
2022-08-06T00:12:33.237Z,0.40
2022-08-06T00:15:12.385Z,0.45
2022-08-06T00:17:42.239Z,0.40
2022-08-06T00:20:10.619Z,0.55
2022-08-06T00:22:37.719Z,0.60
2022-08-06T00:25:05.429Z,0.60
2022-08-06T00:27:38.874Z,0.55
2022-08-06T00:30:18.423Z,0.50
2022-08-06T00:32:51.843Z,0.50
2022-08-06T00:35:24.032Z,0.60
2022-08-06T00:37:57.947Z,0.40
2022-08-06T00:40:31.361Z,0.50
2022-08-06T00:43:06.249Z,0.40
2022-08-06T00:45:38.070Z,0.50
2022-08-06T00:48:37.005Z,0.40
2022-08-06T00:51:00.896Z,0.40
2022-08-06T00:53:33.847Z,0.60
2022-08-06T00:56:08.152Z,0.63
2022-08-06T00:58:39.973Z,0.50
2022-08-06T01:01:16.736Z,0.45
2022-08-06T01:03:51.138Z,0.65
2022-08-06T01:06:55.440Z,0.50
2022-08-06T01:09:08.756Z,0.50
2022-08-06T01:11:38.648Z,0.50
2022-08-06T01:14:09.770Z,0.43
2022-08-06T01:16:58.434Z,0.63
2022-08-06T01:22:01.499Z,0.50
2022-08-06T01:23:44.761Z,0.65
2022-08-06T01:26:34.926Z,0.70
2022-08-06T01:29:36.211Z,0.80
2022-08-06T01:32:07.295Z,0.45
2022-08-06T01:34:47.302Z,0.57
2022-08-06T01:37:39.747Z,0.60
2022-08-06T01:40:13.785Z,0.57
2022-08-06T01:42:44.139Z,0.50
2022-08-06T01:45:14.724Z,0.77
2022-08-06T01:47:54.578Z,0.50
2022-08-06T01:50:28.739Z,0.60
2022-08-06T01:53:00.400Z,0.40
2022-08-06T01:55:56.643Z,0.50
2022-08-06T01:58:27.676Z,0.60
2022-08-06T02:00:58.021Z,0.75
2022-08-06T02:03:50.177Z,0.60
2022-08-06T02:06:49.555Z,0.57
2022-08-06T02:09:23.798Z,0.65
2022-08-06T02:12:18.613Z,0.70
2022-08-06T02:15:05.664Z,0.80
2022-08-06T02:17:54.142Z,0.70
2022-08-06T02:20:36.576Z,0.60
2022-08-06T02:23:08.411Z,0.60
2022-08-06T02:25:41.213Z,0.90
2022-08-06T02:28:10.589Z,0.75
2022-08-06T02:30:42.578Z,0.55
2022-08-06T02:33:11.271Z,0.77
2022-08-06T02:35:51.852Z,1.02
2022-08-06T02:38:23.535Z,1.13
2022-08-06T02:41:01.577Z,0.80
2022-08-06T02:43:38.344Z,0.90
2022-08-06T02:46:20.307Z,0.95
2022-08-06T02:48:52.074Z,1.10
2022-08-06T02:51:43.901Z,1.27
2022-08-06T02:54:21.180Z,0.90
2022-08-06T02:56:55.877Z,0.98
2022-08-06T02:59:27.347Z,0.80
2022-08-06T03:02:12.120Z,1.25
2022-08-06T03:04:56.474Z,0.90
2022-08-06T03:07:30.604Z,1.17
2022-08-06T03:10:00.020Z,1.20
2022-08-06T03:12:29.914Z,0.95
2022-08-06T03:15:07.270Z,1.20
2022-08-06T03:17:41.524Z,1.08
2022-08-06T03:20:17.518Z,1.05
2022-08-06T03:22:48.981Z,1.10
2022-08-06T03:25:17.489Z,1.00
2022-08-06T03:27:47.232Z,1.73
2022-08-06T03:30:33.041Z,1.27
2022-08-06T03:33:07.866Z,1.40
2022-08-06T03:35:54.887Z,1.23
2022-08-06T03:38:29.308Z,1.50
2022-08-06T03:40:58.615Z,1.40
2022-08-06T03:43:27.556Z,1.00
2022-08-06T03:46:01.911Z,1.00
2022-08-06T03:48:38.476Z,1.10
2022-08-06T03:51:17.445Z,1.10
2022-08-06T03:53:59.392Z,1.15
2022-08-06T03:56:30.319Z,1.10
2022-08-06T03:59:04.402Z,1.08
2022-08-06T04:01:43.418Z,1.30
2022-08-06T04:04:27.047Z,1.10
2022-08-06T04:07:00.551Z,1.10
2022-08-06T04:09:33.445Z,1.40
2022-08-06T04:12:42.712Z,1.20
2022-08-06T04:15:08.415Z,1.13
2022-08-06T04:17:40.714Z,1.05
2022-08-06T04:20:12.294Z,0.80
2022-08-06T04:23:06.208Z,0.90
2022-08-06T04:25:37.241Z,0.85
2022-08-06T04:28:06.825Z,1.20
2022-08-06T04:30:35.578Z,0.90
2022-08-06T04:33:09.006Z,1.00
2022-08-06T04:36:04.545Z,0.88
2022-08-06T04:38:31.265Z,0.80
2022-08-06T04:41:03.452Z,0.80
2022-08-06T04:43:38.757Z,0.70
2022-08-06T04:46:20.867Z,0.80
2022-08-06T04:48:52.288Z,0.80
2022-08-06T04:52:35.207Z,1.17
2022-08-06T04:54:12.159Z,1.33
2022-08-06T04:56:42.382Z,1.05
2022-08-06T04:59:18.068Z,1.10
2022-08-06T05:01:57.446Z,1.13
2022-08-06T05:04:32.626Z,1.10
2022-08-06T05:07:52.582Z,1.80
2022-08-06T05:10:17.112Z,1.30
2022-08-06T05:12:47.526Z,1.65
2022-08-06T05:15:41.630Z,1.55
2022-08-06T05:19:15.974Z,1.30
2022-08-06T05:21:05.761Z,0.82
2022-08-06T05:23:46.624Z,1.10
2022-08-06T05:26:25.002Z,1.20
2022-08-06T05:28:55.930Z,1.33
2022-08-06T05:31:38.995Z,1.20
2022-08-06T05:34:12.128Z,1.10
2022-08-06T05:36:39.407Z,1.15
2022-08-06T05:39:09.277Z,1.10
2022-08-06T05:41:59.831Z,0.85
2022-08-06T05:44:29.817Z,1.00
2022-08-06T05:47:05.738Z,1.13
2022-08-06T05:49:58.807Z,1.20
2022-08-06T05:53:07.494Z,1.10
2022-08-06T05:56:07.230Z,0.95
2022-08-06T05:58:54.494Z,1.05
2022-08-06T06:01:24.771Z,0.98
2022-08-06T06:03:56.082Z,1.35
2022-08-06T06:06:23.955Z,1.45
2022-08-06T06:08:57.676Z,1.15
2022-08-06T06:11:46.960Z,1.30
2022-08-06T06:14:38.646Z,1.30
2022-08-06T06:17:23.155Z,1.40
2022-08-06T06:20:16.460Z,1.40
2022-08-06T06:22:57.822Z,1.25
2022-08-06T06:25:43.528Z,0.90
2022-08-06T06:28:38.455Z,1.02
2022-08-06T06:32:06.839Z,1.00
2022-08-06T06:34:26.824Z,1.35
2022-08-06T06:37:04.580Z,1.60
2022-08-06T06:40:17.950Z,1.35
2022-08-06T06:43:02.016Z,0.88
2022-08-06T06:46:17.441Z,1.08
2022-08-06T06:48:41.613Z,0.85
2022-08-06T06:51:40.753Z,0.93
2022-08-06T06:54:09.392Z,0.80
2022-08-06T06:56:47.780Z,0.60
2022-08-06T06:59:56.033Z,0.60
2022-08-06T07:02:20.940Z,0.70
2022-08-06T07:04:52.340Z,0.52
2022-08-06T07:07:23.405Z,0.60
2022-08-06T07:09:53.544Z,0.43
2022-08-06T07:12:33.942Z,0.40
2022-08-06T07:15:02.992Z,0.60
2022-08-06T07:17:45.087Z,0.35
2022-08-06T07:20:20.535Z,0.43
2022-08-06T07:24:08.241Z,0.20
2022-08-06T07:25:53.853Z,0.60
2022-08-06T07:28:27.788Z,0.30
2022-08-06T07:31:09.883Z,0.30
2022-08-06T07:33:59.966Z,0.50
2022-08-06T07:36:32.537Z,0.30
2022-08-06T07:39:08.534Z,0.30
2022-08-06T07:41:50.061Z,0.40
2022-08-06T07:44:29.402Z,0.30
2022-08-06T07:46:59.805Z,0.28
2022-08-06T07:50:00.293Z,0.47
2022-08-06T07:52:26.755Z,0.30
2022-08-06T07:54:57.643Z,0.30
2022-08-06T07:57:26.107Z,0.25
2022-08-06T08:00:00.115Z,0.40
2022-08-06T08:02:30.100Z,0.30
2022-08-06T08:05:16.813Z,0.30
2022-08-06T08:07:53.911Z,0.30
2022-08-06T08:10:28.922Z,0.40
2022-08-06T08:12:58.011Z,0.20
2022-08-06T08:15:32.282Z,0.30
2022-08-06T08:17:59.261Z,0.22
2022-08-06T08:20:34.071Z,0.38
2022-08-06T08:23:07.768Z,0.50
2022-08-06T08:25:40.085Z,0.32
2022-08-06T08:28:15.131Z,0.30
2022-08-06T08:30:47.906Z,0.30
2022-08-06T08:33:21.116Z,0.20
2022-08-06T08:35:50.054Z,0.20
2022-08-06T08:38:32.372Z,0.22
2022-08-06T08:41:09.718Z,0.30
2022-08-06T08:44:00.471Z,0.30
2022-08-06T08:46:38.006Z,0.20
2022-08-06T08:49:19.336Z,0.20
2022-08-06T08:51:47.905Z,0.20
2022-08-06T08:54:22.043Z,0.70
2022-08-06T08:57:10.346Z,0.40
2022-08-06T08:59:57.857Z,0.30
2022-08-06T09:02:26.141Z,0.20
2022-08-06T09:04:54.567Z,0.30
2022-08-06T09:07:35.617Z,0.47
2022-08-06T09:10:16.381Z,0.30
2022-08-06T09:12:45.203Z,0.30
2022-08-06T09:15:14.650Z,0.22
2022-08-06T09:18:25.055Z,0.30
2022-08-06T09:20:35.139Z,0.30
2022-08-06T09:23:02.481Z,0.20
2022-08-06T09:25:41.171Z,0.20
2022-08-06T09:28:31.294Z,0.20
2022-08-06T09:31:21.979Z,0.40
2022-08-06T09:34:30.314Z,0.20
2022-08-06T09:36:47.628Z,0.32
2022-08-06T09:39:22.923Z,0.20
2022-08-06T09:41:58.935Z,0.32
2022-08-06T09:44:37.578Z,0.30
2022-08-06T09:47:16.470Z,0.20
2022-08-06T09:50:00.563Z,0.20
2022-08-06T09:52:27.952Z,0.25
2022-08-06T09:54:55.060Z,0.20
2022-08-06T09:57:35.820Z,0.40
2022-08-06T10:00:33.444Z,0.40
2022-08-06T10:04:03.989Z,0.40
2022-08-06T10:06:06.805Z,0.30
2022-08-06T10:08:39.023Z,0.30
2022-08-06T10:11:07.285Z,0.30
2022-08-06T10:13:43.747Z,0.32
2022-08-06T10:16:17.986Z,0.30
2022-08-06T10:18:54.792Z,0.25
2022-08-06T10:21:33.316Z,0.20
2022-08-06T10:24:09.906Z,0.20
2022-08-06T10:26:36.873Z,0.30
2022-08-06T10:29:06.819Z,0.55
2022-08-06T10:31:35.471Z,0.20
2022-08-06T10:34:17.036Z,0.22
2022-08-06T10:36:52.977Z,0.15
2022-08-06T10:40:07.937Z,0.20
2022-08-06T10:42:21.779Z,0.20
2022-08-06T10:44:51.673Z,0.20
2022-08-06T10:48:58.774Z,0.20
2022-08-06T10:50:26.068Z,0.20
2022-08-06T10:52:59.476Z,0.20
2022-08-06T10:55:37.569Z,0.32
2022-08-06T10:58:13.131Z,0.30
2022-08-06T11:00:44.833Z,0.10
2022-08-06T11:04:14.259Z,0.20
2022-08-06T11:08:10.209Z,0.20
2022-08-06T11:10:27.199Z,0.20
2022-08-06T11:13:12.337Z,0.20
2022-08-06T11:15:42.851Z,0.40
2022-08-06T11:18:16.184Z,0.28
2022-08-06T11:20:53.713Z,0.40
2022-08-06T11:23:52.229Z,0.20
2022-08-06T11:26:07.557Z,0.20
2022-08-06T11:28:34.402Z,0.10
2022-08-06T11:31:04.199Z,0.20
2022-08-06T11:33:34.035Z,0.20
2022-08-06T11:36:03.663Z,0.30
2022-08-06T11:38:51.115Z,0.30
2022-08-06T11:41:57.530Z,0.20
2022-08-06T11:44:31.112Z,0.10
2022-08-06T11:47:22.963Z,0.20
2022-08-06T11:50:02.117Z,0.20
2022-08-06T11:52:34.243Z,0.20
2022-08-06T11:55:08.419Z,0.22
2022-08-06T11:57:41.998Z,0.20
2022-08-06T12:00:20.010Z,0.35
2022-08-06T12:02:55.844Z,0.30
2022-08-06T12:05:23.938Z,0.32
2022-08-06T12:08:38.860Z,0.20
2022-08-06T12:11:25.232Z,0.38
2022-08-06T12:13:57.840Z,0.20
2022-08-06T12:16:41.170Z,0.20
2022-08-06T12:19:19.960Z,0.25
2022-08-06T12:21:56.796Z,0.20
2022-08-06T12:24:45.506Z,0.20
2022-08-06T12:27:24.921Z,0.20
2022-08-06T12:29:59.881Z,0.20
2022-08-06T12:32:36.096Z,0.20
2022-08-06T12:35:50.373Z,0.20
2022-08-06T12:38:18.329Z,0.20
2022-08-06T12:41:10.836Z,0.20
2022-08-06T12:43:56.535Z,0.20
2022-08-06T12:46:29.612Z,0.10
2022-08-06T12:49:01.429Z,0.20
2022-08-06T12:51:30.564Z,0.17
2022-08-06T12:54:03.207Z,0.20
2022-08-06T12:56:36.276Z,0.10
2022-08-06T12:59:12.798Z,0.15
2022-08-06T13:02:07.645Z,0.20
2022-08-06T13:04:38.197Z,0.20
2022-08-06T13:07:09.090Z,0.30
2022-08-06T13:09:56.098Z,0.20
2022-08-06T13:12:29.156Z,0.40
2022-08-06T13:15:18.772Z,0.20
2022-08-06T13:18:41.623Z,0.17
2022-08-06T13:20:59.780Z,0.17
2022-08-06T13:23:55.047Z,0.25
2022-08-06T13:26:26.820Z,0.17
2022-08-06T13:30:34.536Z,0.10
2022-08-06T13:32:33.290Z,0.10
2022-08-06T13:35:03.656Z,0.10
2022-08-06T13:38:06.253Z,0.10
2022-08-06T13:40:41.883Z,0.20
2022-08-06T13:43:39.603Z,0.20
2022-08-06T13:46:11.605Z,0.30
2022-08-06T13:48:49.470Z,0.10
2022-08-06T13:51:22.837Z,0.10
2022-08-06T13:53:57.464Z,0.20
2022-08-06T13:56:28.696Z,0.20
2022-08-06T13:58:56.687Z,0.15
2022-08-06T14:01:23.552Z,0.10
2022-08-06T14:03:50.629Z,0.10
2022-08-06T14:06:20.116Z,0.20
2022-08-06T14:08:50.256Z,0.10
2022-08-06T14:11:17.211Z,0.20
2022-08-06T14:13:48.016Z,0.10
2022-08-06T14:16:15.122Z,0.10
2022-08-06T14:18:47.870Z,0.10
2022-08-06T14:21:27.897Z,0.10
2022-08-06T14:24:01.087Z,0.10
2022-08-06T14:26:28.655Z,0.10
2022-08-06T14:30:27.126Z,0.10
2022-08-06T14:31:53.707Z,0.10
2022-08-06T14:34:35.083Z,0.15
2022-08-06T14:37:14.484Z,0.20
2022-08-06T14:39:58.108Z,0.13
2022-08-06T14:42:47.329Z,0.20
2022-08-06T14:45:21.674Z,0.28
2022-08-06T14:47:59.020Z,0.10
2022-08-06T14:50:38.106Z,0.20
2022-08-06T14:53:16.213Z,0.20
2022-08-06T14:55:58.607Z,0.10
2022-08-06T14:58:30.871Z,0.10
2022-08-06T15:00:58.120Z,0.20
2022-08-06T15:03:27.752Z,0.13
2022-08-06T15:06:04.943Z,0.13
2022-08-06T15:08:34.219Z,0.20
2022-08-06T15:11:06.259Z,0.30
2022-08-06T15:13:41.399Z,0.10
2022-08-06T15:16:11.164Z,0.10
2022-08-06T15:19:19.689Z,0.30
2022-08-06T15:21:50.876Z,0.20
2022-08-06T15:24:18.747Z,0.20
2022-08-06T15:26:49.064Z,0.10
2022-08-06T15:29:16.897Z,0.10
2022-08-06T15:31:45.452Z,0.10
2022-08-06T15:34:13.688Z,0.10
2022-08-06T15:36:59.411Z,0.17
2022-08-06T15:39:53.333Z,0.10
2022-08-06T15:42:20.286Z,0.10
2022-08-06T15:44:47.100Z,0.20
2022-08-06T15:47:15.217Z,0.10
2022-08-06T15:50:03.614Z,0.20
2022-08-06T15:52:32.863Z,0.20
2022-08-06T15:55:15.446Z,0.20
2022-08-06T15:58:04.347Z,0.20
2022-08-06T16:00:36.667Z,0.10
2022-08-06T16:03:08.701Z,0.10
2022-08-06T16:06:12.197Z,0.10
2022-08-06T16:08:35.311Z,0.10
2022-08-06T16:11:12.391Z,0.20
2022-08-06T16:13:41.157Z,0.10
2022-08-06T16:16:20.994Z,0.20
2022-08-06T16:18:51.713Z,0.10
2022-08-06T16:21:19.640Z,0.20
2022-08-06T16:23:55.265Z,0.20
2022-08-06T16:26:29.765Z,0.10
2022-08-06T16:29:40.197Z,0.10
2022-08-06T16:32:07.912Z,0.10
2022-08-06T16:34:36.473Z,0.10
2022-08-06T16:37:28.323Z,0.10
2022-08-06T16:40:00.092Z,0.10
2022-08-06T16:42:28.528Z,0.20
2022-08-06T16:45:02.411Z,0.10
2022-08-06T16:48:20.199Z,0.10
2022-08-06T16:50:26.213Z,0.20
2022-08-06T16:54:07.707Z,0.10
2022-08-06T16:56:13.886Z,0.10
2022-08-06T16:58:43.598Z,0.10
2022-08-06T17:02:21.043Z,0.10
2022-08-06T17:04:21.648Z,0.20
2022-08-06T17:06:53.774Z,0.10
2022-08-06T17:09:21.038Z,0.10
2022-08-06T17:11:58.699Z,0.10
2022-08-06T17:14:31.962Z,0.10
2022-08-06T17:17:02.112Z,0.20
2022-08-06T17:19:33.966Z,0.20
2022-08-06T17:22:06.706Z,0.20
2022-08-06T17:24:38.176Z,0.10
2022-08-06T17:27:15.249Z,0.20
2022-08-06T17:29:49.343Z,0.10
2022-08-06T17:32:27.728Z,0.10
2022-08-06T17:35:09.003Z,0.10
2022-08-06T17:37:44.255Z,0.10
2022-08-06T17:40:19.877Z,0.10
2022-08-06T17:43:54.411Z,0.10
2022-08-06T17:46:25.722Z,0.10
2022-08-06T17:48:54.017Z,0.10
2022-08-06T17:51:22.395Z,0.13
2022-08-06T17:53:54.799Z,0.10
2022-08-06T17:56:30.507Z,0.20
2022-08-06T17:59:16.491Z,0.10
2022-08-06T18:01:46.501Z,0.20
2022-08-06T18:04:22.551Z,0.10
2022-08-06T18:06:58.279Z,0.13
2022-08-06T18:10:11.239Z,0.10
2022-08-06T18:12:13.171Z,0.10
2022-08-06T18:14:41.007Z,0.10
2022-08-06T18:17:16.122Z,0.10
2022-08-06T18:19:44.621Z,0.10
2022-08-06T18:22:23.056Z,0.10
2022-08-06T18:24:53.986Z,0.10
2022-08-06T18:27:54.505Z,0.10
2022-08-06T18:30:30.170Z,0.20
2022-08-06T18:33:03.944Z,0.10
2022-08-06T18:35:54.570Z,0.10
2022-08-06T18:38:21.140Z,0.10
2022-08-06T18:41:00.908Z,0.20
2022-08-06T18:43:53.710Z,0.10
2022-08-06T18:47:01.010Z,0.20
2022-08-06T18:49:06.490Z,0.10
2022-08-06T18:51:36.909Z,0.10
2022-08-06T18:54:05.639Z,0.10
2022-08-06T18:56:33.123Z,0.10
2022-08-06T18:59:00.822Z,0.13
2022-08-06T19:01:47.622Z,0.15
2022-08-06T19:04:20.225Z,0.10
2022-08-06T19:06:55.794Z,0.10
2022-08-06T19:09:24.019Z,0.10
2022-08-06T19:11:52.389Z,0.10
2022-08-06T19:14:20.155Z,0.20
2022-08-06T19:16:48.602Z,0.10
2022-08-06T19:19:46.323Z,0.70
2022-08-06T19:22:09.709Z,0.80
2022-08-06T19:24:39.620Z,0.30
2022-08-06T19:27:08.069Z,0.20
2022-08-06T19:30:04.031Z,0.08
2022-08-06T19:32:39.380Z,4.82
2022-08-06T19:35:07.671Z,2.40
2022-08-06T19:37:59.837Z,1.80
2022-08-06T19:40:46.084Z,0.60
2022-08-06T19:44:29.010Z,0.30
2022-08-06T19:46:29.683Z,0.40
2022-08-06T19:48:48.357Z,0.30
2022-08-06T19:52:02.436Z,0.30
2022-08-06T19:54:03.618Z,0.20
2022-08-06T19:56:33.125Z,0.20
2022-08-06T20:00:56.216Z,0.20
2022-08-06T20:01:49.889Z,0.20
2022-08-06T20:04:35.295Z,0.20
2022-08-06T20:07:11.740Z,0.20
2022-08-06T20:09:59.838Z,0.13
2022-08-06T20:12:32.221Z,0.20
2022-08-06T20:14:59.292Z,0.20
2022-08-06T20:17:29.740Z,0.20
2022-08-06T20:20:15.586Z,0.20
2022-08-06T20:22:44.467Z,0.20
2022-08-06T20:25:18.735Z,0.20
2022-08-06T20:29:09.235Z,0.10
2022-08-06T20:30:34.859Z,0.20
2022-08-06T20:33:02.073Z,0.20
2022-08-06T20:35:32.637Z,0.20
2022-08-06T20:38:07.215Z,0.20
2022-08-06T20:41:26.430Z,0.10
2022-08-06T20:44:06.242Z,0.10
2022-08-06T20:46:09.989Z,0.20
2022-08-06T20:48:39.150Z,0.20
2022-08-06T20:51:06.063Z,0.20
2022-08-06T20:53:37.298Z,0.40
2022-08-06T20:56:04.559Z,0.30
2022-08-06T20:58:33.169Z,0.30
2022-08-06T21:01:00.659Z,0.20
2022-08-06T21:05:10.357Z,0.50
2022-08-06T21:06:14.491Z,0.60
2022-08-06T21:08:50.654Z,0.30
2022-08-06T21:11:20.430Z,0.38
2022-08-06T21:13:59.883Z,0.52
2022-08-06T21:16:34.948Z,0.52
2022-08-06T21:19:07.083Z,0.40
2022-08-06T21:21:35.240Z,0.40
2022-08-06T21:24:04.765Z,1.00
2022-08-06T21:26:35.367Z,0.30
2022-08-06T21:29:41.665Z,0.47
2022-08-06T21:31:57.157Z,0.30
2022-08-06T21:34:26.002Z,0.20
2022-08-06T21:36:55.985Z,0.20
2022-08-06T21:39:24.570Z,0.38
2022-08-06T21:42:11.822Z,0.22
2022-08-06T21:44:38.889Z,0.20
2022-08-06T21:47:07.408Z,0.30
2022-08-06T21:49:59.094Z,0.20
2022-08-06T21:52:28.437Z,0.15
2022-08-06T21:56:35.121Z,0.30
2022-08-06T21:57:53.176Z,0.22
2022-08-06T22:00:34.557Z,0.30
2022-08-06T22:03:06.734Z,0.30
2022-08-06T22:06:20.226Z,0.30
2022-08-06T22:08:21.284Z,0.30
2022-08-06T22:10:52.679Z,0.20
2022-08-06T22:13:24.212Z,0.30
2022-08-06T22:15:55.733Z,0.20
2022-08-06T22:18:28.854Z,0.30
2022-08-06T22:20:57.510Z,0.50
2022-08-06T22:23:28.844Z,0.30
2022-08-06T22:25:59.666Z,0.20
2022-08-06T22:28:37.812Z,0.20
2022-08-06T22:31:08.605Z,0.30
2022-08-06T22:33:58.621Z,0.30
2022-08-06T22:36:34.593Z,0.28
2022-08-06T22:39:06.019Z,0.30
2022-08-06T22:41:42.778Z,0.32
2022-08-06T22:44:30.972Z,0.40
2022-08-06T22:47:04.809Z,0.10
2022-08-06T22:49:36.795Z,0.10
2022-08-06T22:52:18.931Z,0.10
2022-08-06T22:54:58.980Z,0.10
2022-08-06T22:57:27.453Z,0.10
2022-08-06T23:00:18.373Z,0.10
2022-08-06T23:02:45.869Z,0.15
2022-08-06T23:05:18.077Z,0.10
2022-08-06T23:07:53.652Z,0.10
2022-08-06T23:10:20.986Z,0.10
2022-08-06T23:12:50.077Z,0.10
2022-08-06T23:15:29.969Z,0.10
2022-08-06T23:18:08.334Z,0.10
2022-08-06T23:20:42.482Z,0.10
2022-08-06T23:23:12.033Z,0.10
2022-08-06T23:26:02.127Z,0.10
2022-08-06T23:28:28.255Z,0.00
2022-08-06T23:30:56.185Z,0.10
2022-08-06T23:33:22.873Z,0.10
2022-08-06T23:35:50.829Z,0.10
2022-08-06T23:38:31.854Z,0.10
2022-08-06T23:41:02.171Z,0.10
2022-08-06T23:43:34.996Z,0.10
2022-08-06T23:46:03.739Z,0.10
2022-08-06T23:48:31.758Z,0.10
2022-08-06T23:51:04.881Z,0.10
2022-08-06T23:54:08.965Z,0.30
2022-08-06T23:56:19.422Z,0.10
2022-08-06T23:58:49.245Z,0.10
